Time;durP1;ratioP1;P1;durP2;ratioP2;P2;SDS_P1;SDS_P2;PMS_P1;PMS_P2;Temp;Humidity;BMP_temperature;BMP_pressure;BME280_temperature;BME280_humidity;BME280_pressure;Samples;Min_cycle;Max_cycle;Signal;HPM_P1;HPM_P2
2022/04/22 00:00:20;;;;;;;;;5.50;5.00;;;;;;;;5098427;27;51210;-52
2022/04/22 00:02:46;;;;;;;;;9.00;9.00;;;;;;;;5094526;27;54251;-53
2022/04/22 00:05:11;;;;;;;;;9.00;8.75;;;;;;;;5107049;27;51776;-54
2022/04/22 00:07:37;;;;;;;;;7.00;7.00;;;;;;;;5106751;27;51123;-53
2022/04/22 00:10:02;;;;;;;;;6.00;6.00;;;;;;;;5098586;27;50938;-53
2022/04/22 00:12:28;;;;;;;;;11.00;10.00;;;;;;;;5095720;27;52941;-52
2022/04/22 00:14:53;;;;;;;;;9.00;7.50;;;;;;;;5103692;27;51123;-52
2022/04/22 00:17:18;;;;;;;;;7.25;7.00;;;;;;;;5106213;27;51455;-53
2022/04/22 00:19:43;;;;;;;;;8.50;8.50;;;;;;;;5100854;27;51216;-53
2022/04/22 00:22:09;;;;;;;;;6.25;6.25;;;;;;;;5107093;27;51126;-52
2022/04/22 00:24:34;;;;;;;;;6.50;6.50;;;;;;;;5109667;27;51213;-53
2022/04/22 00:26:59;;;;;;;;;7.25;6.00;;;;;;;;5107812;27;51310;-54
2022/04/22 00:29:24;;;;;;;;;8.00;8.00;;;;;;;;5095896;27;50871;-51
2022/04/22 00:31:49;;;;;;;;;6.75;6.50;;;;;;;;5106361;27;50946;-53
2022/04/22 00:34:15;;;;;;;;;8.75;6.50;;;;;;;;5110828;27;51210;-53
2022/04/22 00:36:40;;;;;;;;;8.00;8.00;;;;;;;;5107672;27;51184;-50
2022/04/22 00:39:05;;;;;;;;;9.00;8.00;;;;;;;;5107969;27;52832;-51
2022/04/22 00:41:31;;;;;;;;;7.00;7.00;;;;;;;;5100409;27;51690;-54
2022/04/22 00:43:56;;;;;;;;;9.00;7.50;;;;;;;;5114559;27;51137;-51
2022/04/22 00:46:21;;;;;;;;;8.75;8.75;;;;;;;;5101270;27;51509;-49
2022/04/22 00:48:47;;;;;;;;;9.50;9.00;;;;;;;;5106905;27;51136;-53
2022/04/22 00:51:12;;;;;;;;;7.50;7.50;;;;;;;;5105746;27;53322;-50
2022/04/22 00:53:39;;;;;;;;;10.00;9.00;;;;;;;;5111356;27;50860;-52
2022/04/22 00:56:05;;;;;;;;;8.00;8.00;;;;;;;;5102498;27;52538;-50
2022/04/22 00:58:30;;;;;;;;;9.75;9.00;;;;;;;;5093474;27;51536;-53
2022/04/22 01:00:56;;;;;;;;;8.50;8.00;;;;;;;;5105921;27;52890;-55
2022/04/22 01:03:22;;;;;;;;;8.75;8.00;;;;;;;;5100008;27;51031;-52
2022/04/22 01:11:16;;;;;;;;;9.25;9.25;;;;;;;;5106374;27;51147;-54
2022/04/22 01:13:43;;;;;;;;;10.00;10.00;;;;;;;;5102037;27;51331;-52
2022/04/22 01:16:08;;;;;;;;;10.00;10.00;;;;;;;;5108185;27;51111;-54
2022/04/22 01:18:33;;;;;;;;;11.25;10.00;;;;;;;;5109117;27;51344;-51
2022/04/22 01:21:02;;;;;;;;;10.75;10.00;;;;;;;;5106301;27;51832;-53
2022/04/22 01:23:28;;;;;;;;;8.75;8.75;;;;;;;;5106851;27;51121;-52
2022/04/22 01:25:53;;;;;;;;;12.00;11.00;;;;;;;;5111871;27;51141;-53
2022/04/22 01:28:18;;;;;;;;;10.50;10.00;;;;;;;;5099232;27;51324;-54
2022/04/22 01:30:44;;;;;;;;;9.25;9.25;;;;;;;;5102883;27;51137;-53
2022/04/22 01:33:09;;;;;;;;;9.50;9.25;;;;;;;;5092911;27;51205;-51
2022/04/22 01:35:34;;;;;;;;;9.75;9.75;;;;;;;;5111394;27;51112;-48
2022/04/22 01:37:59;;;;;;;;;10.00;10.00;;;;;;;;5105831;27;51333;-53
2022/04/22 01:40:25;;;;;;;;;11.25;11.25;;;;;;;;5089012;27;53938;-53
2022/04/22 01:42:50;;;;;;;;;11.50;11.00;;;;;;;;5110542;27;51172;-54
2022/04/22 01:45:15;;;;;;;;;11.50;9.75;;;;;;;;5100640;27;50955;-53
2022/04/22 01:47:40;;;;;;;;;12.00;11.00;;;;;;;;5097330;27;51149;-54
2022/04/22 01:50:06;;;;;;;;;11.25;10.00;;;;;;;;5099972;27;52064;-52
2022/04/22 01:52:33;;;;;;;;;11.00;11.00;;;;;;;;5112911;27;51095;-54
2022/04/22 01:54:58;;;;;;;;;9.50;9.50;;;;;;;;5111039;27;51134;-52
2022/04/22 01:57:23;;;;;;;;;9.00;8.00;;;;;;;;5106118;27;51363;-51
2022/04/22 01:59:49;;;;;;;;;11.50;10.50;;;;;;;;5112746;27;51860;-53
2022/04/22 02:02:15;;;;;;;;;10.00;9.00;;;;;;;;5106367;27;51073;-53
2022/04/22 02:04:41;;;;;;;;;8.25;8.25;;;;;;;;5110693;27;51267;-51
2022/04/22 02:07:06;;;;;;;;;9.50;9.00;;;;;;;;5107816;27;51176;-53
2022/04/22 02:09:31;;;;;;;;;10.00;9.00;;;;;;;;5108979;27;53398;-54
2022/04/22 02:11:57;;;;;;;;;10.50;10.50;;;;;;;;5117081;27;50908;-51
2022/04/22 02:14:22;;;;;;;;;11.50;10.50;;;;;;;;5102469;27;51158;-53
2022/04/22 02:16:48;;;;;;;;;11.75;9.00;;;;;;;;5107758;27;51027;-51
2022/04/22 02:19:13;;;;;;;;;11.75;10.25;;;;;;;;5111862;27;51145;-51
2022/04/22 02:21:38;;;;;;;;;11.50;11.25;;;;;;;;5115695;27;51082;-53
2022/04/22 02:24:03;;;;;;;;;14.00;12.00;;;;;;;;5114648;27;51169;-54
2022/04/22 02:26:29;;;;;;;;;14.00;14.00;;;;;;;;5115549;27;50977;-54
2022/04/22 02:28:54;;;;;;;;;12.00;11.25;;;;;;;;5114060;27;51804;-52
2022/04/22 02:31:19;;;;;;;;;11.75;11.00;;;;;;;;5107614;27;51140;-51
2022/04/22 02:33:44;;;;;;;;;11.50;11.00;;;;;;;;5112485;27;51170;-50
2022/04/22 02:36:10;;;;;;;;;10.75;10.50;;;;;;;;5113915;27;51123;-52
2022/04/22 02:38:36;;;;;;;;;9.00;8.50;;;;;;;;5105233;27;51623;-53
2022/04/22 02:46:29;;;;;;;;;10.00;10.00;;;;;;;;5113447;27;51113;-51
2022/04/22 02:48:58;;;;;;;;;12.00;12.00;;;;;;;;5115923;27;52638;-50
2022/04/22 02:51:24;;;;;;;;;14.75;14.25;;;;;;;;5104236;27;51053;-53
2022/04/22 02:53:49;;;;;;;;;12.75;11.50;;;;;;;;5105631;27;51057;-51
2022/04/22 02:56:16;;;;;;;;;10.75;10.75;;;;;;;;5110185;27;50905;-53
2022/04/22 02:58:41;;;;;;;;;10.00;10.00;;;;;;;;5109158;27;51873;-51
2022/04/22 03:01:06;;;;;;;;;8.00;7.00;;;;;;;;5107742;27;51053;-52
2022/04/22 03:03:32;;;;;;;;;12.75;11.75;;;;;;;;5115129;27;50854;-54
2022/04/22 03:05:58;;;;;;;;;10.25;9.75;;;;;;;;5097620;27;51354;-52
2022/04/22 03:08:23;;;;;;;;;11.75;11.75;;;;;;;;5110524;27;51684;-51
2022/04/22 03:10:48;;;;;;;;;8.25;7.75;;;;;;;;5104707;27;50900;-51
2022/04/22 03:13:14;;;;;;;;;8.75;8.25;;;;;;;;5096426;27;52303;-53
2022/04/22 03:15:41;;;;;;;;;8.50;8.00;;;;;;;;5099272;27;51092;-53
2022/04/22 03:18:06;;;;;;;;;9.00;9.00;;;;;;;;5114358;27;53111;-54
2022/04/22 03:20:31;;;;;;;;;11.50;11.50;;;;;;;;5112978;27;51076;-51
2022/04/22 03:22:57;;;;;;;;;8.00;8.00;;;;;;;;5112706;27;50984;-52
2022/04/22 03:25:22;;;;;;;;;10.00;9.00;;;;;;;;5101810;27;51475;-54
2022/04/22 03:27:47;;;;;;;;;7.50;7.00;;;;;;;;5106594;27;52813;-50
2022/04/22 03:30:13;;;;;;;;;10.25;9.25;;;;;;;;5095018;27;51066;-51
2022/04/22 03:32:38;;;;;;;;;12.75;12.00;;;;;;;;5108610;27;51102;-54
2022/04/22 03:35:04;;;;;;;;;12.25;9.00;;;;;;;;5095666;27;51135;-50
2022/04/22 03:37:29;;;;;;;;;13.00;12.00;;;;;;;;5089405;27;51124;-52
2022/04/22 03:39:54;;;;;;;;;13.75;12.75;;;;;;;;5108513;27;51134;-54
2022/04/22 03:42:19;;;;;;;;;13.00;12.00;;;;;;;;5115399;27;50968;-52
2022/04/22 03:44:45;;;;;;;;;11.75;10.50;;;;;;;;5105792;27;51193;-48
2022/04/22 03:47:10;;;;;;;;;11.00;11.00;;;;;;;;5107334;27;51882;-51
2022/04/22 03:49:35;;;;;;;;;7.75;6.75;;;;;;;;5098961;27;51016;-51
2022/04/22 03:52:00;;;;;;;;;9.75;9.25;;;;;;;;5112539;27;50909;-53
2022/04/22 03:54:26;;;;;;;;;12.00;11.25;;;;;;;;5109004;27;50913;-52
2022/04/22 03:59:35;;;;;;;;;12.75;12.75;;;;;;;;5114245;27;51123;-51
2022/04/22 04:02:00;;;;;;;;;11.75;11.25;;;;;;;;5096427;27;50841;-53
2022/04/22 04:04:25;;;;;;;;;12.25;11.75;;;;;;;;5110442;27;51142;-52
2022/04/22 04:06:51;;;;;;;;;12.75;11.75;;;;;;;;5101217;27;51883;-50
2022/04/22 04:17:33;;;;;;;;;10.75;10.00;;;;;;;;5097805;27;51166;-52
2022/04/22 04:25:26;;;;;;;;;13.00;13.00;;;;;;;;5110347;27;50999;-53
2022/04/22 04:27:52;;;;;;;;;11.00;11.00;;;;;;;;5108741;27;51076;-53
2022/04/22 04:30:17;;;;;;;;;13.50;12.00;;;;;;;;5111915;27;51124;-51
2022/04/22 04:32:42;;;;;;;;;13.00;13.00;;;;;;;;5113918;27;50910;-51
2022/04/22 04:35:07;;;;;;;;;11.50;11.00;;;;;;;;5109598;27;51265;-53
2022/04/22 04:37:38;;;;;;;;;12.25;11.50;;;;;;;;5113394;27;51833;-53
2022/04/22 04:40:04;;;;;;;;;13.00;13.00;;;;;;;;5114676;27;51097;-52
2022/04/22 04:42:29;;;;;;;;;12.50;12.50;;;;;;;;5114253;27;51013;-50
2022/04/22 04:44:54;;;;;;;;;10.00;10.00;;;;;;;;5100266;27;50992;-52
2022/04/22 04:47:19;;;;;;;;;14.00;13.00;;;;;;;;5106771;27;51899;-51
2022/04/22 04:49:45;;;;;;;;;13.25;13.00;;;;;;;;5113884;27;51106;-52
2022/04/22 04:52:10;;;;;;;;;12.50;12.50;;;;;;;;5114030;27;50834;-51
2022/04/22 04:54:36;;;;;;;;;14.00;12.75;;;;;;;;5111041;27;51236;-54
2022/04/22 04:57:01;;;;;;;;;19.75;19.50;;;;;;;;5110389;27;51618;-53
2022/04/22 04:59:26;;;;;;;;;12.75;12.75;;;;;;;;5071989;27;51300;-55
2022/04/22 05:01:51;;;;;;;;;14.50;12.25;;;;;;;;5102612;27;51199;-51
2022/04/22 05:04:17;;;;;;;;;14.25;14.00;;;;;;;;5113525;27;50849;-54
2022/04/22 05:06:42;;;;;;;;;11.25;11.00;;;;;;;;5098696;27;51705;-53
2022/04/22 05:09:07;;;;;;;;;11.50;11.50;;;;;;;;5109533;27;50983;-53
2022/04/22 05:11:33;;;;;;;;;13.25;13.00;;;;;;;;5114022;27;50916;-49
2022/04/22 05:13:58;;;;;;;;;14.75;14.25;;;;;;;;5111308;27;50858;-52
2022/04/22 05:16:24;;;;;;;;;14.00;13.50;;;;;;;;5112778;27;52178;-51
2022/04/22 05:18:49;;;;;;;;;12.25;11.75;;;;;;;;5111765;27;51092;-51
2022/04/22 05:21:15;;;;;;;;;12.50;12.25;;;;;;;;5094975;27;51062;-53
2022/04/22 05:23:40;;;;;;;;;12.75;12.75;;;;;;;;5113816;27;51057;-54
2022/04/22 05:26:05;;;;;;;;;14.75;13.75;;;;;;;;5109434;27;51871;-52
2022/04/22 05:28:30;;;;;;;;;10.00;10.00;;;;;;;;5108544;27;51156;-50
2022/04/22 05:33:40;;;;;;;;;15.75;15.50;;;;;;;;5113924;27;50980;-50
2022/04/22 05:36:06;;;;;;;;;14.00;14.00;;;;;;;;5106874;27;51197;-55
2022/04/22 05:38:32;;;;;;;;;17.25;16.50;;;;;;;;5112911;27;51122;-53
2022/04/22 05:40:57;;;;;;;;;14.00;12.75;;;;;;;;5112825;27;50990;-54
2022/04/22 05:43:22;;;;;;;;;11.00;10.75;;;;;;;;5100093;27;51249;-49
2022/04/22 05:45:47;;;;;;;;;12.50;12.50;;;;;;;;5115933;27;51166;-55
2022/04/22 05:48:13;;;;;;;;;16.50;13.75;;;;;;;;5097708;27;51122;-52
2022/04/22 05:50:38;;;;;;;;;18.25;16.00;;;;;;;;5111045;27;51235;-53
2022/04/22 05:53:03;;;;;;;;;15.75;14.75;;;;;;;;5116348;27;51043;-52
2022/04/22 05:55:28;;;;;;;;;14.25;14.25;;;;;;;;5097271;27;51111;-48
2022/04/22 05:57:54;;;;;;;;;16.75;14.75;;;;;;;;5107976;27;51478;-52
2022/04/22 06:00:24;;;;;;;;;15.50;14.50;;;;;;;;5111959;27;52330;-54
2022/04/22 06:02:50;;;;;;;;;17.00;15.25;;;;;;;;5105574;27;53342;-53
2022/04/22 06:05:17;;;;;;;;;12.50;11.25;;;;;;;;5115564;27;51261;-52
2022/04/22 06:07:43;;;;;;;;;13.75;13.50;;;;;;;;5113173;27;50993;-54
2022/04/22 06:12:52;;;;;;;;;13.50;12.50;;;;;;;;5113564;27;51136;-51
2022/04/22 06:15:18;;;;;;;;;12.75;12.75;;;;;;;;5101065;27;51082;-52
2022/04/22 06:17:43;;;;;;;;;18.50;17.50;;;;;;;;5116266;27;50976;-55
2022/04/22 06:20:09;;;;;;;;;12.67;12.33;;;;;;;;5116449;27;51149;-54
2022/04/22 06:22:35;;;;;;;;;13.00;13.00;;;;;;;;5103666;27;50901;-54
2022/04/22 06:25:00;;;;;;;;;14.25;14.00;;;;;;;;5105961;27;51963;-50
2022/04/22 06:27:26;;;;;;;;;13.25;13.25;;;;;;;;5104144;27;50915;-51
2022/04/22 06:29:52;;;;;;;;;10.33;10.00;;;;;;;;5107846;27;51845;-52
2022/04/22 06:32:18;;;;;;;;;12.00;12.00;;;;;;;;5113622;27;51040;-50
2022/04/22 06:34:43;;;;;;;;;14.00;14.00;;;;;;;;5106957;27;51867;-53
2022/04/22 06:37:11;;;;;;;;;13.25;12.25;;;;;;;;5114922;27;51142;-50
2022/04/22 06:45:46;;;;;;;;;15.67;13.67;;;;;;;;5115630;27;50943;-54
2022/04/22 06:47:49;;;;;;;;;15.00;13.75;;;;;;;;5098821;27;51229;-53
2022/04/22 06:50:19;;;;;;;;;13.67;13.33;;;;;;;;5075745;27;51183;-54
2022/04/22 06:52:44;;;;;;;;;12.75;12.75;;;;;;;;5079571;27;51746;-53
2022/04/22 06:55:10;;;;;;;;;14.33;14.33;;;;;;;;5104222;27;51149;-54
2022/04/22 06:57:37;;;;;;;;;14.00;13.67;;;;;;;;5098632;27;51137;-52
2022/04/22 07:00:02;;;;;;;;;14.50;12.75;;;;;;;;5096294;27;51091;-52
2022/04/22 07:02:29;;;;;;;;;16.00;16.00;;;;;;;;5106235;27;51183;-54
2022/04/22 07:04:54;;;;;;;;;13.00;12.33;;;;;;;;5112214;27;52744;-53
2022/04/22 07:07:20;;;;;;;;;15.00;15.00;;;;;;;;5089175;27;51038;-53
2022/04/22 07:09:45;;;;;;;;;16.00;15.33;;;;;;;;5112095;27;51164;-52
2022/04/22 07:12:11;;;;;;;;;15.00;15.00;;;;;;;;5122340;27;51237;-49
2022/04/22 07:14:38;;;;;;;;;14.00;13.33;;;;;;;;5112764;27;51994;-51
2022/04/22 07:17:03;;;;;;;;;14.00;13.00;;;;;;;;5120745;27;51071;-51
2022/04/22 07:19:29;;;;;;;;;13.00;13.00;;;;;;;;5114327;27;50971;-51
2022/04/22 07:21:55;;;;;;;;;16.67;15.33;;;;;;;;5105141;27;50923;-52
2022/04/22 07:24:20;;;;;;;;;15.67;14.00;;;;;;;;5092273;27;52695;-53
2022/04/22 07:26:46;;;;;;;;;16.00;13.33;;;;;;;;5114686;27;50874;-53
2022/04/22 07:29:12;;;;;;;;;17.00;15.00;;;;;;;;5114062;27;50861;-53
2022/04/22 07:31:37;;;;;;;;;15.33;14.00;;;;;;;;5115535;27;51299;-50
2022/04/22 07:34:03;;;;;;;;;11.67;11.67;;;;;;;;5115382;27;52224;-53
2022/04/22 07:36:28;;;;;;;;;14.00;13.67;;;;;;;;5114923;27;51403;-52
2022/04/22 07:38:53;;;;;;;;;13.50;12.00;;;;;;;;5114713;27;51003;-53
2022/04/22 07:41:23;;;;;;;;;14.33;14.33;;;;;;;;5115341;27;51369;-51
2022/04/22 07:46:47;;;;;;;;;14.33;14.00;;;;;;;;5099419;27;51147;-52
2022/04/22 07:49:12;;;;;;;;;17.33;17.00;;;;;;;;5098365;27;51096;-53
2022/04/22 07:51:39;;;;;;;;;12.33;12.33;;;;;;;;5112562;27;51057;-53
2022/04/22 07:54:04;;;;;;;;;17.00;16.67;;;;;;;;5095882;27;53022;-52
2022/04/22 07:56:29;;;;;;;;;15.00;15.00;;;;;;;;5114666;27;51106;-53
2022/04/22 07:58:56;;;;;;;;;13.00;12.00;;;;;;;;5114761;27;51073;-55
2022/04/22 08:01:22;;;;;;;;;13.33;11.67;;;;;;;;5107734;27;50922;-53
2022/04/22 08:03:47;;;;;;;;;15.00;15.00;;;;;;;;5114460;27;51642;-54
2022/04/22 08:06:12;;;;;;;;;15.00;15.00;;;;;;;;5113813;27;51119;-53
2022/04/22 08:08:38;;;;;;;;;17.33;16.33;;;;;;;;5114540;27;50943;-53
2022/04/22 08:11:03;;;;;;;;;14.67;14.00;;;;;;;;5114941;27;51233;-53
2022/04/22 08:13:28;;;;;;;;;15.33;14.67;;;;;;;;5114526;27;53071;-54
2022/04/22 08:15:54;;;;;;;;;17.67;17.33;;;;;;;;5114571;27;51191;-53
2022/04/22 08:18:19;;;;;;;;;14.00;13.67;;;;;;;;5114673;27;50928;-52
2022/04/22 08:20:44;;;;;;;;;16.00;16.00;;;;;;;;5114768;27;51313;-52
2022/04/22 08:23:09;;;;;;;;;14.00;14.00;;;;;;;;5095397;27;52859;-53
2022/04/22 08:25:35;;;;;;;;;15.00;14.00;;;;;;;;5114205;27;50880;-54
2022/04/22 08:28:02;;;;;;;;;14.00;13.67;;;;;;;;5114283;27;50977;-51
2022/04/22 08:30:28;;;;;;;;;6.33;6.33;;;;;;;;5114450;27;50990;-54
2022/04/22 08:32:53;;;;;;;;;11.00;11.00;;;;;;;;5113747;27;50960;-53
2022/04/22 08:35:18;;;;;;;;;13.33;12.33;;;;;;;;5114161;27;51123;-51
2022/04/22 08:37:45;;;;;;;;;12.33;12.00;;;;;;;;5113946;27;50955;-51
2022/04/22 08:40:10;;;;;;;;;15.00;15.00;;;;;;;;5114059;27;51021;-53
2022/04/22 08:42:40;;;;;;;;;11.67;11.67;;;;;;;;5113606;27;52280;-53
2022/04/22 08:45:06;;;;;;;;;14.00;14.00;;;;;;;;5095217;27;51148;-53
2022/04/22 08:50:19;;;;;;;;;14.67;13.00;;;;;;;;5111597;27;51096;-52
2022/04/22 08:52:56;;;;;;;;;15.00;15.00;;;;;;;;5096658;27;53054;-53
2022/04/22 08:55:22;;;;;;;;;15.00;15.00;;;;;;;;5113873;27;51022;-54
2022/04/22 08:57:48;;;;;;;;;13.67;12.67;;;;;;;;5112512;27;51193;-53
2022/04/22 09:00:14;;;;;;;;;11.33;11.00;;;;;;;;5114062;27;51031;-54
2022/04/22 09:02:40;;;;;;;;;12.00;12.00;;;;;;;;5113336;27;52433;-54
2022/04/22 09:05:08;;;;;;;;;11.67;11.67;;;;;;;;5112115;27;50897;-52
2022/04/22 09:07:34;;;;;;;;;16.33;15.33;;;;;;;;5113536;27;51167;-54
2022/04/22 09:10:01;;;;;;;;;14.33;13.67;;;;;;;;5113687;27;50936;-54
2022/04/22 09:12:27;;;;;;;;;12.00;12.00;;;;;;;;5113115;27;50992;-53
2022/04/22 09:14:54;;;;;;;;;11.33;11.33;;;;;;;;5113443;27;51143;-54
2022/04/22 09:17:26;;;;;;;;;13.67;13.00;;;;;;;;5112463;27;50999;-52
2022/04/22 09:19:53;;;;;;;;;12.00;11.33;;;;;;;;5113384;27;51067;-54
2022/04/22 09:22:19;;;;;;;;;11.67;11.67;;;;;;;;5112793;27;51790;-52
2022/04/22 09:24:48;;;;;;;;;9.33;9.33;;;;;;;;5113141;27;50980;-53
2022/04/22 09:27:14;;;;;;;;;11.67;10.67;;;;;;;;5113552;27;50944;-53
2022/04/22 09:29:51;;;;;;;;;12.67;11.33;;;;;;;;5113408;27;51209;-53
2022/04/22 09:32:25;;;;;;;;;13.00;12.00;;;;;;;;5112624;27;52788;-53
2022/04/22 09:34:51;;;;;;;;;10.33;10.00;;;;;;;;5112651;27;51061;-53
2022/04/22 09:42:47;;;;;;;;;12.00;11.33;;;;;;;;5112540;27;51021;-54
2022/04/22 09:45:12;;;;;;;;;12.00;12.00;;;;;;;;5112917;27;50996;-54
2022/04/22 09:47:40;;;;;;;;;11.67;10.00;;;;;;;;5113039;27;51054;-48
2022/04/22 09:50:08;;;;;;;;;9.00;9.00;;;;;;;;5111235;27;51416;-52
2022/04/22 09:52:38;;;;;;;;;10.33;10.33;;;;;;;;5112216;27;51790;-53
2022/04/22 09:55:06;;;;;;;;;7.00;7.00;;;;;;;;5112503;27;51066;-51
2022/04/22 09:57:55;;;;;;;;;9.00;9.00;;;;;;;;5094904;27;51076;-53
2022/04/22 10:00:21;;;;;;;;;8.00;8.00;;;;;;;;5099614;27;51161;-53
2022/04/22 10:02:50;;;;;;;;;10.00;10.00;;;;;;;;5105388;27;51772;-55
2022/04/22 10:05:19;;;;;;;;;10.00;10.00;;;;;;;;5112878;27;51041;-55
2022/04/22 10:07:44;;;;;;;;;13.33;11.33;;;;;;;;5112312;27;51146;-53
2022/04/22 10:10:10;;;;;;;;;7.33;7.00;;;;;;;;5113368;27;51114;-54
2022/04/22 10:12:36;;;;;;;;;8.00;8.00;;;;;;;;5094466;27;51722;-50
2022/04/22 10:15:03;;;;;;;;;8.00;8.00;;;;;;;;5113157;27;51019;-52
2022/04/22 10:17:29;;;;;;;;;8.67;8.33;;;;;;;;5112915;27;51067;-54
2022/04/22 10:19:55;;;;;;;;;10.67;10.67;;;;;;;;5094504;27;51381;-50
2022/04/22 10:22:21;;;;;;;;;4.33;4.33;;;;;;;;5112320;27;52047;-53
2022/04/22 10:24:47;;;;;;;;;8.67;8.00;;;;;;;;5112763;27;50883;-52
2022/04/22 10:27:13;;;;;;;;;10.67;9.00;;;;;;;;5111907;27;51023;-56
2022/04/22 10:29:40;;;;;;;;;9.00;9.00;;;;;;;;5115396;27;51236;-54
2022/04/22 10:32:05;;;;;;;;;8.00;8.00;;;;;;;;5115379;27;51995;-53
2022/04/22 10:34:38;;;;;;;;;6.00;6.00;;;;;;;;5115808;27;51088;-54
2022/04/22 10:37:04;;;;;;;;;8.33;8.33;;;;;;;;5115419;27;51000;-52
2022/04/22 10:39:34;;;;;;;;;9.00;9.00;;;;;;;;5113907;27;51278;-54
2022/04/22 10:41:59;;;;;;;;;7.00;7.00;;;;;;;;5114994;27;51379;-56
2022/04/22 10:47:14;;;;;;;;;7.00;6.00;;;;;;;;5115438;27;51164;-53
2022/04/22 10:49:40;;;;;;;;;7.00;7.00;;;;;;;;5096868;27;50973;-62
2022/04/22 10:52:13;;;;;;;;;7.00;6.00;;;;;;;;5114629;27;51669;-55
2022/04/22 10:54:50;;;;;;;;;7.33;6.67;;;;;;;;5115381;27;50925;-55
2022/04/22 10:57:16;;;;;;;;;8.33;8.33;;;;;;;;5102575;27;51136;-54
2022/04/22 10:59:42;;;;;;;;;9.00;8.00;;;;;;;;5097251;27;51075;-55
2022/04/22 11:02:29;;;;;;;;;6.67;5.33;;;;;;;;5109104;27;51046;-53
2022/04/22 11:05:13;;;;;;;;;8.33;7.33;;;;;;;;5114979;27;51065;-54
2022/04/22 11:07:47;;;;;;;;;7.67;7.67;;;;;;;;5114627;27;50964;-54
2022/04/22 11:10:12;;;;;;;;;7.33;7.00;;;;;;;;5115018;27;51454;-52
2022/04/22 11:12:51;;;;;;;;;9.67;9.67;;;;;;;;5114614;27;51836;-55
2022/04/22 11:15:36;;;;;;;;;7.00;6.00;;;;;;;;5115565;27;51006;-54
2022/04/22 11:18:01;;;;;;;;;7.67;7.67;;;;;;;;5114943;27;51205;-55
2022/04/22 11:20:27;;;;;;;;;8.00;6.67;;;;;;;;5114988;27;50844;-52
2022/04/22 11:22:52;;;;;;;;;8.00;8.00;;;;;;;;5114012;27;51531;-53
2022/04/22 11:25:21;;;;;;;;;5.67;5.00;;;;;;;;5114861;27;51016;-54
2022/04/22 11:27:48;;;;;;;;;7.00;7.00;;;;;;;;5114501;27;51376;-56
2022/04/22 11:30:14;;;;;;;;;6.67;6.00;;;;;;;;5115116;27;50973;-61
2022/04/22 11:32:45;;;;;;;;;7.00;7.00;;;;;;;;5114173;27;52108;-55
2022/04/22 11:35:19;;;;;;;;;8.33;8.33;;;;;;;;5114501;27;51047;-53
2022/04/22 11:37:44;;;;;;;;;9.00;8.00;;;;;;;;5114641;27;51060;-50
2022/04/22 11:40:17;;;;;;;;;7.67;7.67;;;;;;;;5102120;27;50945;-50
2022/04/22 11:42:43;;;;;;;;;8.67;8.00;;;;;;;;5104750;27;51940;-52
2022/04/22 11:45:11;;;;;;;;;6.67;6.67;;;;;;;;5114639;27;51140;-54
2022/04/22 11:47:37;;;;;;;;;8.00;8.00;;;;;;;;5114672;27;51129;-53
2022/04/22 11:50:02;;;;;;;;;6.00;6.00;;;;;;;;5114330;27;51218;-50
2022/04/22 11:52:29;;;;;;;;;7.67;7.67;;;;;;;;5095371;27;51082;-49
2022/04/22 11:54:57;;;;;;;;;8.00;8.00;;;;;;;;5113996;27;51143;-51
2022/04/22 11:57:22;;;;;;;;;8.67;8.00;;;;;;;;5114190;27;50772;-55
2022/04/22 12:05:32;;;;;;;;;9.33;8.33;;;;;;;;5108321;27;51337;-53
2022/04/22 12:05:32;;;;;;;;;7.00;7.00;;;;;;;;5098945;27;51209;-54
2022/04/22 12:08:02;;;;;;;;;7.67;7.33;;;;;;;;5113895;27;51266;-53
2022/04/22 12:10:30;;;;;;;;;7.00;7.00;;;;;;;;5114660;27;50999;-51
2022/04/22 12:13:00;;;;;;;;;6.00;6.00;;;;;;;;5114099;27;51380;-51
2022/04/22 12:15:26;;;;;;;;;10.33;10.00;;;;;;;;5096144;27;50984;-53
2022/04/22 12:17:51;;;;;;;;;6.67;6.33;;;;;;;;5114815;27;51017;-54
2022/04/22 12:20:16;;;;;;;;;8.00;8.00;;;;;;;;5114920;27;51261;-53
2022/04/22 12:22:42;;;;;;;;;8.67;8.00;;;;;;;;5114271;27;51477;-55
2022/04/22 12:25:19;;;;;;;;;7.33;7.33;;;;;;;;5114837;27;50856;-51
2022/04/22 12:28:03;;;;;;;;;8.33;8.33;;;;;;;;5114781;27;51143;-54
2022/04/22 12:30:33;;;;;;;;;7.00;7.00;;;;;;;;5114635;27;51044;-52
2022/04/22 12:32:59;;;;;;;;;7.00;7.00;;;;;;;;5111956;27;52049;-52
2022/04/22 12:35:24;;;;;;;;;9.00;9.00;;;;;;;;5114116;27;50991;-53
2022/04/22 12:37:50;;;;;;;;;7.33;7.33;;;;;;;;5114142;27;50971;-53
2022/04/22 12:40:16;;;;;;;;;7.00;7.00;;;;;;;;5112507;27;50780;-58
2022/04/22 12:42:42;;;;;;;;;6.33;6.33;;;;;;;;5113525;27;52967;-55
2022/04/22 12:53:27;;;;;;;;;9.00;9.00;;;;;;;;5113616;27;51589;-53
2022/04/22 12:56:02;;;;;;;;;7.00;6.33;;;;;;;;5113855;27;51129;-54
2022/04/22 12:58:28;;;;;;;;;7.67;7.67;;;;;;;;5112387;27;51131;-51
2022/04/22 13:00:54;;;;;;;;;7.00;7.00;;;;;;;;5094768;27;51642;-54
2022/04/22 13:03:21;;;;;;;;;9.00;8.00;;;;;;;;5111321;27;51042;-54
2022/04/22 13:05:47;;;;;;;;;7.00;7.00;;;;;;;;5111665;27;52758;-51
2022/04/22 13:08:15;;;;;;;;;8.00;8.00;;;;;;;;5113122;27;51040;-55
2022/04/22 13:10:41;;;;;;;;;9.00;8.00;;;;;;;;5113608;27;52171;-52
2022/04/22 13:13:07;;;;;;;;;9.00;8.33;;;;;;;;5111938;27;51031;-54
2022/04/22 13:15:32;;;;;;;;;7.67;7.00;;;;;;;;5113684;27;51156;-55
2022/04/22 13:17:57;;;;;;;;;8.33;8.00;;;;;;;;5113322;27;51123;-55
2022/04/22 13:20:22;;;;;;;;;7.00;6.67;;;;;;;;5113798;27;51108;-55
2022/04/22 13:22:48;;;;;;;;;8.00;8.00;;;;;;;;5098120;27;50992;-55
2022/04/22 13:25:15;;;;;;;;;7.67;7.67;;;;;;;;5094435;27;50989;-55
2022/04/22 13:27:41;;;;;;;;;10.00;10.00;;;;;;;;5112811;27;50946;-54
2022/04/22 13:30:07;;;;;;;;;7.00;7.00;;;;;;;;5113129;27;50921;-52
2022/04/22 13:32:33;;;;;;;;;7.00;6.33;;;;;;;;5112654;27;51131;-53
2022/04/22 13:34:58;;;;;;;;;5.67;5.67;;;;;;;;5113097;27;51062;-54
2022/04/22 13:37:23;;;;;;;;;6.67;6.67;;;;;;;;5111477;27;50890;-52
2022/04/22 13:39:49;;;;;;;;;8.33;7.67;;;;;;;;5106975;27;50865;-53
2022/04/22 13:42:15;;;;;;;;;11.33;10.67;;;;;;;;5112760;27;51819;-54
2022/04/22 13:52:52;;;;;;;;;5.00;5.00;;;;;;;;5111671;27;50908;-59
2022/04/22 13:55:18;;;;;;;;;6.33;6.33;;;;;;;;5110747;27;51383;-54
2022/04/22 13:57:43;;;;;;;;;5.67;5.00;;;;;;;;5101443;27;50914;-54
2022/04/22 14:00:10;;;;;;;;;8.00;7.00;;;;;;;;5111415;27;50866;-56
2022/04/22 14:02:36;;;;;;;;;7.00;6.00;;;;;;;;5094133;27;51169;-53
2022/04/22 14:05:01;;;;;;;;;7.00;7.00;;;;;;;;5114881;27;50972;-53
2022/04/22 14:07:26;;;;;;;;;6.33;6.00;;;;;;;;5115533;27;51046;-54
2022/04/22 14:09:52;;;;;;;;;7.00;7.00;;;;;;;;5114171;27;50975;-54
2022/04/22 14:12:17;;;;;;;;;8.50;8.50;;;;;;;;5115198;27;51711;-50
2022/04/22 14:14:43;;;;;;;;;5.00;5.00;;;;;;;;5115532;27;51026;-54
2022/04/22 14:17:09;;;;;;;;;8.00;7.33;;;;;;;;5097030;27;51202;-55
2022/04/22 14:19:35;;;;;;;;;6.67;6.67;;;;;;;;5115605;27;51244;-53
2022/04/22 14:22:00;;;;;;;;;6.33;6.00;;;;;;;;5115019;27;50950;-53
2022/04/22 14:24:26;;;;;;;;;6.67;6.67;;;;;;;;5115154;27;50920;-54
2022/04/22 14:26:53;;;;;;;;;7.00;7.00;;;;;;;;5113970;27;51366;-53
2022/04/22 14:29:19;;;;;;;;;7.00;7.00;;;;;;;;5115489;27;51113;-56
2022/04/22 14:31:44;;;;;;;;;7.67;6.67;;;;;;;;5114763;27;51853;-56
2022/04/22 14:34:09;;;;;;;;;6.67;6.33;;;;;;;;5115295;27;51054;-54
2022/04/22 14:36:34;;;;;;;;;8.00;7.33;;;;;;;;5115139;27;51123;-54
2022/04/22 14:39:00;;;;;;;;;7.33;7.33;;;;;;;;5114038;27;51134;-55
2022/04/22 14:41:25;;;;;;;;;7.00;7.00;;;;;;;;5114782;27;51495;-55
2022/04/22 14:43:50;;;;;;;;;10.00;8.00;;;;;;;;5113363;27;51156;-54
2022/04/22 14:46:16;;;;;;;;;7.33;7.00;;;;;;;;5115680;27;51075;-52
2022/04/22 14:48:42;;;;;;;;;6.67;5.33;;;;;;;;5115446;27;51058;-55
2022/04/22 14:51:07;;;;;;;;;10.00;8.67;;;;;;;;5114902;27;51010;-53
2022/04/22 14:53:32;;;;;;;;;6.00;6.00;;;;;;;;5114421;27;51292;-55
2022/04/22 14:55:59;;;;;;;;;8.00;7.67;;;;;;;;5115022;27;51130;-56
2022/04/22 14:58:24;;;;;;;;;6.00;6.00;;;;;;;;5115114;27;51347;-53
2022/04/22 15:00:50;;;;;;;;;6.67;6.67;;;;;;;;5113339;27;51727;-55
2022/04/22 15:03:15;;;;;;;;;7.33;7.00;;;;;;;;5114868;27;50920;-54
2022/04/22 15:05:40;;;;;;;;;7.00;7.00;;;;;;;;5115208;27;50942;-54
2022/04/22 15:08:06;;;;;;;;;7.33;7.33;;;;;;;;5113922;27;51047;-54
2022/04/22 15:10:32;;;;;;;;;9.00;7.67;;;;;;;;5096371;27;53635;-56
2022/04/22 15:12:57;;;;;;;;;7.00;6.33;;;;;;;;5114619;27;51003;-53
2022/04/22 15:15:23;;;;;;;;;7.00;6.00;;;;;;;;5113378;27;50799;-57
2022/04/22 15:25:59;;;;;;;;;4.00;4.00;;;;;;;;5114383;27;51503;-55
2022/04/22 15:28:25;;;;;;;;;5.67;5.67;;;;;;;;5114153;27;51315;-54
2022/04/22 15:31:02;;;;;;;;;5.00;5.00;;;;;;;;5114286;27;50874;-54
2022/04/22 15:33:28;;;;;;;;;15.33;13.33;;;;;;;;5113396;27;51082;-53
2022/04/22 15:35:53;;;;;;;;;12.67;12.67;;;;;;;;5112747;27;51392;-55
2022/04/22 15:38:20;;;;;;;;;6.67;6.67;;;;;;;;5112459;27;51005;-55
2022/04/22 15:40:45;;;;;;;;;8.00;6.00;;;;;;;;5109026;27;52961;-56
2022/04/22 15:43:12;;;;;;;;;7.00;6.00;;;;;;;;5104254;27;51220;-56